sensor_id;sensor_type;location;lat;lon;timestamp;pressure;altitude;pressure_sealevel;temperature;humidity
18697;BME280;22617;43.690;27.956;2023-04-09T00:02:46;99428.31;;;4.58;78.30
18697;BME280;22617;43.690;27.956;2023-04-09T00:07:50;99425.41;;;4.46;77.28
18697;BME280;22617;43.690;27.956;2023-04-09T00:12:53;99427.09;;;4.14;77.41
18697;BME280;22617;43.690;27.956;2023-04-09T00:17:58;99433.34;;;4.22;77.98
18697;BME280;22617;43.690;27.956;2023-04-09T00:23:02;99436.84;;;4.24;77.67
18697;BME280;22617;43.690;27.956;2023-04-09T00:28:06;99426.88;;;4.06;77.42
18697;BME280;22617;43.690;27.956;2023-04-09T00:33:11;99423.72;;;3.86;77.80
18697;BME280;22617;43.690;27.956;2023-04-09T00:38:15;99424.34;;;3.78;78.33
18697;BME280;22617;43.690;27.956;2023-04-09T00:43:19;99428.63;;;3.77;77.93
18697;BME280;22617;43.690;27.956;2023-04-09T00:48:24;99417.72;;;3.58;77.90
18697;BME280;22617;43.690;27.956;2023-04-09T00:53:27;99424.50;;;3.56;78.31
18697;BME280;22617;43.690;27.956;2023-04-09T00:58:31;99427.28;;;3.62;78.58
18697;BME280;22617;43.690;27.956;2023-04-09T01:03:36;99422.66;;;3.50;77.44
18697;BME280;22617;43.690;27.956;2023-04-09T01:08:48;99417.63;;;3.28;77.74
18697;BME280;22617;43.690;27.956;2023-04-09T01:13:58;99426.81;;;3.46;78.72
18697;BME280;22617;43.690;27.956;2023-04-09T01:19:09;99425.72;;;3.67;77.83
18697;BME280;22617;43.690;27.956;2023-04-09T01:24:25;99424.16;;;3.72;77.41
18697;BME280;22617;43.690;27.956;2023-04-09T01:29:38;99423.47;;;3.77;76.81
18697;BME280;22617;43.690;27.956;2023-04-09T01:34:45;99427.06;;;3.82;76.90
18697;BME280;22617;43.690;27.956;2023-04-09T01:39:49;99422.53;;;3.75;77.03
18697;BME280;22617;43.690;27.956;2023-04-09T01:44:54;99421.44;;;3.39;77.30
18697;BME280;22617;43.690;27.956;2023-04-09T01:49:59;99421.03;;;3.27;78.26
18697;BME280;22617;43.690;27.956;2023-04-09T01:55:04;99417.00;;;3.35;78.81
18697;BME280;22617;43.690;27.956;2023-04-09T02:00:10;99422.94;;;3.32;78.63
18697;BME280;22617;43.690;27.956;2023-04-09T02:05:17;99422.66;;;3.23;77.40
18697;BME280;22617;43.690;27.956;2023-04-09T02:10:25;99421.97;;;3.02;78.17
18697;BME280;22617;43.690;27.956;2023-04-09T02:15:31;99429.72;;;3.03;79.08
18697;BME280;22617;43.690;27.956;2023-04-09T02:20:36;99418.09;;;3.15;78.93
18697;BME280;22617;43.690;27.956;2023-04-09T02:25:40;99419.34;;;3.27;79.36
18697;BME280;22617;43.690;27.956;2023-04-09T02:30:45;99416.72;;;3.26;78.72
18697;BME280;22617;43.690;27.956;2023-04-09T02:35:49;99415.66;;;3.19;77.81
18697;BME280;22617;43.690;27.956;2023-04-09T02:40:53;99417.69;;;3.29;78.26
18697;BME280;22617;43.690;27.956;2023-04-09T02:45:58;99416.41;;;3.17;77.29
18697;BME280;22617;43.690;27.956;2023-04-09T02:51:04;99416.25;;;3.11;77.41
18697;BME280;22617;43.690;27.956;2023-04-09T02:56:07;99421.66;;;2.93;77.50
18697;BME280;22617;43.690;27.956;2023-04-09T03:01:12;99423.09;;;2.85;78.27
18697;BME280;22617;43.690;27.956;2023-04-09T03:06:16;99424.44;;;2.74;78.36
18697;BME280;22617;43.690;27.956;2023-04-09T03:11:20;99425.16;;;2.70;78.25
18697;BME280;22617;43.690;27.956;2023-04-09T03:16:25;99439.66;;;2.18;79.54
18697;BME280;22617;43.690;27.956;2023-04-09T03:21:28;99443.28;;;2.00;81.45
18697;BME280;22617;43.690;27.956;2023-04-09T03:26:33;99439.66;;;1.95;82.70
18697;BME280;22617;43.690;27.956;2023-04-09T03:31:42;99436.88;;;2.12;82.64
18697;BME280;22617;43.690;27.956;2023-04-09T03:36:45;99439.28;;;2.08;83.65
18697;BME280;22617;43.690;27.956;2023-04-09T03:41:56;99445.06;;;2.26;83.54
18697;BME280;22617;43.690;27.956;2023-04-09T03:47:06;99443.13;;;2.43;83.35
18697;BME280;22617;43.690;27.956;2023-04-09T03:52:11;99441.47;;;2.21;81.65
18697;BME280;22617;43.690;27.956;2023-04-09T03:57:19;99449.88;;;2.17;81.13
18697;BME280;22617;43.690;27.956;2023-04-09T04:02:27;99450.75;;;2.17;80.88
18697;BME280;22617;43.690;27.956;2023-04-09T04:07:38;99444.72;;;2.39;81.16
18697;BME280;22617;43.690;27.956;2023-04-09T04:12:49;99457.97;;;2.51;81.21
18697;BME280;22617;43.690;27.956;2023-04-09T04:18:01;99452.75;;;2.74;81.19
18697;BME280;22617;43.690;27.956;2023-04-09T04:23:16;99455.44;;;2.77;81.12
18697;BME280;22617;43.690;27.956;2023-04-09T04:28:32;99451.41;;;3.10;81.43
18697;BME280;22617;43.690;27.956;2023-04-09T04:33:39;99447.06;;;3.34;80.89
18697;BME280;22617;43.690;27.956;2023-04-09T04:38:48;99448.91;;;3.38;80.01
18697;BME280;22617;43.690;27.956;2023-04-09T04:44:01;99456.13;;;3.23;80.46
18697;BME280;22617;43.690;27.956;2023-04-09T04:49:07;99456.63;;;3.38;81.74
18697;BME280;22617;43.690;27.956;2023-04-09T04:54:18;99455.78;;;3.39;82.44
18697;BME280;22617;43.690;27.956;2023-04-09T04:59:28;99465.72;;;3.56;83.86
18697;BME280;22617;43.690;27.956;2023-04-09T05:04:39;99465.44;;;3.73;83.31
18697;BME280;22617;43.690;27.956;2023-04-09T05:09:46;99473.03;;;3.97;83.72
18697;BME280;22617;43.690;27.956;2023-04-09T05:14:50;99473.13;;;4.00;83.78
18697;BME280;22617;43.690;27.956;2023-04-09T05:19:55;99473.19;;;4.03;84.11
18697;BME280;22617;43.690;27.956;2023-04-09T05:25:07;99468.03;;;4.31;84.66
18697;BME280;22617;43.690;27.956;2023-04-09T05:30:13;99458.41;;;4.57;85.92
18697;BME280;22617;43.690;27.956;2023-04-09T05:35:19;99461.56;;;4.78;86.40
18697;BME280;22617;43.690;27.956;2023-04-09T05:40:23;99463.31;;;5.12;87.74
18697;BME280;22617;43.690;27.956;2023-04-09T05:45:28;99462.53;;;5.52;89.23
18697;BME280;22617;43.690;27.956;2023-04-09T05:50:33;99458.84;;;5.79;89.94
18697;BME280;22617;43.690;27.956;2023-04-09T05:55:54;99459.56;;;6.09;89.18
18697;BME280;22617;43.690;27.956;2023-04-09T06:01:02;99455.06;;;6.42;88.07
18697;BME280;22617;43.690;27.956;2023-04-09T06:06:06;99449.00;;;6.88;86.52
18697;BME280;22617;43.690;27.956;2023-04-09T06:11:10;99454.22;;;7.41;85.60
18697;BME280;22617;43.690;27.956;2023-04-09T06:16:14;99446.03;;;7.72;83.20
18697;BME280;22617;43.690;27.956;2023-04-09T06:21:20;99454.47;;;8.18;81.72
18697;BME280;22617;43.690;27.956;2023-04-09T06:26:24;99460.22;;;8.63;79.65
18697;BME280;22617;43.690;27.956;2023-04-09T06:31:28;99459.88;;;9.14;77.38
18697;BME280;22617;43.690;27.956;2023-04-09T06:36:33;99453.38;;;9.68;76.07
18697;BME280;22617;43.690;27.956;2023-04-09T06:41:38;99453.72;;;10.24;72.03
18697;BME280;22617;43.690;27.956;2023-04-09T06:46:59;99457.34;;;10.63;67.96
18697;BME280;22617;43.690;27.956;2023-04-09T06:52:04;99455.72;;;11.07;67.71
18697;BME280;22617;43.690;27.956;2023-04-09T06:57:08;99452.25;;;11.55;65.65
18697;BME280;22617;43.690;27.956;2023-04-09T07:02:11;99455.66;;;12.07;67.48
18697;BME280;22617;43.690;27.956;2023-04-09T07:07:16;99452.06;;;12.34;64.09
18697;BME280;22617;43.690;27.956;2023-04-09T07:12:28;99443.16;;;12.79;63.48
18697;BME280;22617;43.690;27.956;2023-04-09T07:17:32;99457.72;;;13.20;62.45
18697;BME280;22617;43.690;27.956;2023-04-09T07:22:38;99444.44;;;13.47;60.61
18697;BME280;22617;43.690;27.956;2023-04-09T07:27:41;99446.03;;;13.66;59.75
18697;BME280;22617;43.690;27.956;2023-04-09T07:32:45;99441.25;;;14.05;59.23
18697;BME280;22617;43.690;27.956;2023-04-09T07:37:50;99441.06;;;14.20;58.05
18697;BME280;22617;43.690;27.956;2023-04-09T07:42:54;99442.59;;;14.42;55.64
18697;BME280;22617;43.690;27.956;2023-04-09T07:47:59;99445.66;;;14.74;56.19
18697;BME280;22617;43.690;27.956;2023-04-09T07:53:04;99445.97;;;14.50;54.42
18697;BME280;22617;43.690;27.956;2023-04-09T07:58:07;99443.75;;;14.86;55.64
18697;BME280;22617;43.690;27.956;2023-04-09T08:03:11;99433.97;;;14.97;53.30
18697;BME280;22617;43.690;27.956;2023-04-09T08:08:16;99441.00;;;14.96;52.90
18697;BME280;22617;43.690;27.956;2023-04-09T08:13:22;99445.50;;;15.42;51.91
18697;BME280;22617;43.690;27.956;2023-04-09T08:18:25;99447.78;;;15.64;53.01
18697;BME280;22617;43.690;27.956;2023-04-09T08:23:30;99437.69;;;15.91;53.30
18697;BME280;22617;43.690;27.956;2023-04-09T08:28:34;99442.59;;;16.09;52.58
18697;BME280;22617;43.690;27.956;2023-04-09T08:33:38;99440.91;;;16.49;52.40
18697;BME280;22617;43.690;27.956;2023-04-09T08:38:43;99441.25;;;16.74;49.88
18697;BME280;22617;43.690;27.956;2023-04-09T08:43:50;99433.69;;;16.99;50.10
18697;BME280;22617;43.690;27.956;2023-04-09T08:48:59;99447.63;;;17.04;49.97
18697;BME280;22617;43.690;27.956;2023-04-09T08:54:05;99436.88;;;17.13;49.95
18697;BME280;22617;43.690;27.956;2023-04-09T08:59:09;99437.06;;;17.06;49.14
18697;BME280;22617;43.690;27.956;2023-04-09T09:04:12;99439.94;;;17.32;49.03
18697;BME280;22617;43.690;27.956;2023-04-09T09:09:17;99421.28;;;17.75;49.88
18697;BME280;22617;43.690;27.956;2023-04-09T09:14:21;99432.53;;;16.74;49.87
18697;BME280;22617;43.690;27.956;2023-04-09T09:19:28;99415.91;;;17.46;51.59
18697;BME280;22617;43.690;27.956;2023-04-09T09:24:44;99410.31;;;17.56;47.26
18697;BME280;22617;43.690;27.956;2023-04-09T09:29:51;99411.25;;;17.55;46.98
18697;BME280;22617;43.690;27.956;2023-04-09T09:34:59;99412.34;;;17.82;47.93
18697;BME280;22617;43.690;27.956;2023-04-09T09:40:07;99422.25;;;17.37;46.25
18697;BME280;22617;43.690;27.956;2023-04-09T09:45:16;99419.03;;;18.57;44.85
18697;BME280;22617;43.690;27.956;2023-04-09T09:50:22;99419.69;;;18.33;45.00
18697;BME280;22617;43.690;27.956;2023-04-09T09:55:30;99410.06;;;18.90;46.64
18697;BME280;22617;43.690;27.956;2023-04-09T10:00:36;99406.13;;;18.46;44.90
18697;BME280;22617;43.690;27.956;2023-04-09T10:05:40;99400.25;;;18.37;48.62
18697;BME280;22617;43.690;27.956;2023-04-09T10:10:46;99399.91;;;18.47;42.96
18697;BME280;22617;43.690;27.956;2023-04-09T10:15:50;99400.25;;;19.23;43.34
18697;BME280;22617;43.690;27.956;2023-04-09T10:20:57;99392.03;;;19.57;41.09
18697;BME280;22617;43.690;27.956;2023-04-09T10:26:03;99395.25;;;18.86;43.08
18697;BME280;22617;43.690;27.956;2023-04-09T10:31:07;99389.16;;;19.89;42.23
18697;BME280;22617;43.690;27.956;2023-04-09T10:36:11;99387.34;;;19.39;40.45
18697;BME280;22617;43.690;27.956;2023-04-09T10:41:22;99374.16;;;19.90;40.33
18697;BME280;22617;43.690;27.956;2023-04-09T10:46:28;99376.91;;;19.87;40.75
18697;BME280;22617;43.690;27.956;2023-04-09T10:51:34;99368.88;;;18.85;42.30
18697;BME280;22617;43.690;27.956;2023-04-09T10:57:13;99381.06;;;17.33;45.50
18697;BME280;22617;43.690;27.956;2023-04-09T11:02:36;99369.75;;;17.65;46.25
18697;BME280;22617;43.690;27.956;2023-04-09T11:07:54;99371.75;;;16.83;47.09
18697;BME280;22617;43.690;27.956;2023-04-09T11:13:01;99376.59;;;16.21;48.54
18697;BME280;22617;43.690;27.956;2023-04-09T11:18:05;99374.69;;;15.86;49.09
18697;BME280;22617;43.690;27.956;2023-04-09T11:23:11;99359.47;;;15.56;51.12
18697;BME280;22617;43.690;27.956;2023-04-09T11:28:19;99357.00;;;15.94;49.37
18697;BME280;22617;43.690;27.956;2023-04-09T11:33:30;99346.00;;;17.65;47.64
18697;BME280;22617;43.690;27.956;2023-04-09T11:38:35;99351.22;;;17.32;46.56
18697;BME280;22617;43.690;27.956;2023-04-09T11:43:40;99335.03;;;16.77;48.05
18697;BME280;22617;43.690;27.956;2023-04-09T11:48:44;99340.16;;;16.44;47.90
18697;BME280;22617;43.690;27.956;2023-04-09T11:53:48;99339.84;;;16.18;48.29
18697;BME280;22617;43.690;27.956;2023-04-09T11:58:53;99332.81;;;15.76;50.56
18697;BME280;22617;43.690;27.956;2023-04-09T12:03:57;99328.03;;;15.50;51.23
18697;BME280;22617;43.690;27.956;2023-04-09T12:09:02;99333.16;;;16.43;51.67
18697;BME280;22617;43.690;27.956;2023-04-09T12:14:11;99323.00;;;16.67;48.88
18697;BME280;22617;43.690;27.956;2023-04-09T12:19:15;99316.69;;;17.09;47.71
18697;BME280;22617;43.690;27.956;2023-04-09T12:24:22;99316.53;;;17.15;48.38
18697;BME280;22617;43.690;27.956;2023-04-09T12:29:27;99310.63;;;17.73;47.13
18697;BME280;22617;43.690;27.956;2023-04-09T12:34:30;99309.25;;;17.57;48.14
18697;BME280;22617;43.690;27.956;2023-04-09T12:39:34;99300.41;;;17.27;48.35
18697;BME280;22617;43.690;27.956;2023-04-09T12:44:39;99297.31;;;18.37;47.85
18697;BME280;22617;43.690;27.956;2023-04-09T12:49:43;99294.94;;;18.27;47.39
18697;BME280;22617;43.690;27.956;2023-04-09T12:54:47;99290.47;;;17.05;47.38
18697;BME280;22617;43.690;27.956;2023-04-09T12:59:52;99288.22;;;17.23;47.70
18697;BME280;22617;43.690;27.956;2023-04-09T13:04:56;99285.69;;;16.48;49.15
18697;BME280;22617;43.690;27.956;2023-04-09T13:10:00;99277.16;;;16.75;49.51
18697;BME280;22617;43.690;27.956;2023-04-09T13:15:06;99276.63;;;16.61;48.55
18697;BME280;22617;43.690;27.956;2023-04-09T13:20:10;99282.31;;;16.41;48.76
18697;BME280;22617;43.690;27.956;2023-04-09T13:25:13;99271.03;;;16.36;48.17
18697;BME280;22617;43.690;27.956;2023-04-09T13:30:20;99261.47;;;17.06;48.09
18697;BME280;22617;43.690;27.956;2023-04-09T13:35:24;99252.41;;;17.16;48.54
18697;BME280;22617;43.690;27.956;2023-04-09T13:40:28;99248.97;;;16.79;49.12
18697;BME280;22617;43.690;27.956;2023-04-09T13:45:33;99247.47;;;17.02;46.99
18697;BME280;22617;43.690;27.956;2023-04-09T13:50:37;99256.19;;;16.72;46.91
18697;BME280;22617;43.690;27.956;2023-04-09T13:55:41;99255.97;;;16.44;47.26
18697;BME280;22617;43.690;27.956;2023-04-09T14:00:46;99256.00;;;16.04;46.83
18697;BME280;22617;43.690;27.956;2023-04-09T14:05:50;99251.25;;;16.57;47.49
18697;BME280;22617;43.690;27.956;2023-04-09T14:10:53;99248.16;;;16.77;46.92
18697;BME280;22617;43.690;27.956;2023-04-09T14:15:59;99245.44;;;16.80;47.45
18697;BME280;22617;43.690;27.956;2023-04-09T14:21:03;99235.72;;;16.46;46.26
18697;BME280;22617;43.690;27.956;2023-04-09T14:26:06;99250.91;;;16.35;47.55
18697;BME280;22617;43.690;27.956;2023-04-09T14:31:11;99248.22;;;16.37;48.70
18697;BME280;22617;43.690;27.956;2023-04-09T14:36:15;99253.94;;;16.17;47.95
18697;BME280;22617;43.690;27.956;2023-04-09T14:41:19;99263.78;;;16.07;47.95
18697;BME280;22617;43.690;27.956;2023-04-09T14:46:24;99253.81;;;15.83;46.93
18697;BME280;22617;43.690;27.956;2023-04-09T14:51:28;99252.84;;;15.44;48.09
18697;BME280;22617;43.690;27.956;2023-04-09T14:56:32;99250.22;;;15.44;49.31
18697;BME280;22617;43.690;27.956;2023-04-09T15:01:37;99250.63;;;15.23;50.17
18697;BME280;22617;43.690;27.956;2023-04-09T15:06:41;99244.56;;;14.70;50.86
18697;BME280;22617;43.690;27.956;2023-04-09T15:11:44;99240.03;;;14.80;50.97
18697;BME280;22617;43.690;27.956;2023-04-09T15:16:49;99238.47;;;14.68;51.07
18697;BME280;22617;43.690;27.956;2023-04-09T15:21:56;99238.13;;;14.36;51.50
18697;BME280;22617;43.690;27.956;2023-04-09T15:27:00;99227.09;;;14.13;51.64
18697;BME280;22617;43.690;27.956;2023-04-09T15:32:05;99232.63;;;13.91;52.80
18697;BME280;22617;43.690;27.956;2023-04-09T15:37:09;99233.75;;;13.72;53.09
18697;BME280;22617;43.690;27.956;2023-04-09T15:42:12;99236.47;;;13.65;53.52
18697;BME280;22617;43.690;27.956;2023-04-09T15:47:22;99240.19;;;13.45;53.74
18697;BME280;22617;43.690;27.956;2023-04-09T15:52:26;99238.69;;;13.26;54.53
18697;BME280;22617;43.690;27.956;2023-04-09T15:57:29;99244.06;;;13.11;54.75
18697;BME280;22617;43.690;27.956;2023-04-09T16:02:34;99247.81;;;12.83;54.49
18697;BME280;22617;43.690;27.956;2023-04-09T16:07:39;99240.88;;;12.77;54.36
18697;BME280;22617;43.690;27.956;2023-04-09T16:12:43;99247.97;;;12.64;55.15
18697;BME280;22617;43.690;27.956;2023-04-09T16:17:49;99248.91;;;12.54;55.30
18697;BME280;22617;43.690;27.956;2023-04-09T16:22:52;99250.78;;;12.42;55.42
18697;BME280;22617;43.690;27.956;2023-04-09T16:27:56;99237.75;;;12.33;55.65
18697;BME280;22617;43.690;27.956;2023-04-09T16:33:01;99239.53;;;12.29;56.44
18697;BME280;22617;43.690;27.956;2023-04-09T16:38:05;99240.53;;;12.11;56.66
18697;BME280;22617;43.690;27.956;2023-04-09T16:43:09;99240.59;;;12.02;56.86
18697;BME280;22617;43.690;27.956;2023-04-09T16:48:14;99242.41;;;11.88;57.14
18697;BME280;22617;43.690;27.956;2023-04-09T16:53:17;99241.59;;;11.74;57.21
18697;BME280;22617;43.690;27.956;2023-04-09T16:58:21;99250.28;;;11.76;57.25
18697;BME280;22617;43.690;27.956;2023-04-09T17:03:26;99252.94;;;11.58;58.17
18697;BME280;22617;43.690;27.956;2023-04-09T17:08:29;99254.75;;;11.44;58.51
18697;BME280;22617;43.690;27.956;2023-04-09T17:13:33;99253.91;;;11.28;59.17
18697;BME280;22617;43.690;27.956;2023-04-09T17:18:38;99259.19;;;11.11;59.23
18697;BME280;22617;43.690;27.956;2023-04-09T17:23:42;99262.69;;;11.00;60.07
18697;BME280;22617;43.690;27.956;2023-04-09T17:28:46;99269.66;;;10.90;59.97
18697;BME280;22617;43.690;27.956;2023-04-09T17:33:51;99271.41;;;10.83;60.23
18697;BME280;22617;43.690;27.956;2023-04-09T17:38:54;99274.88;;;10.73;60.26
18697;BME280;22617;43.690;27.956;2023-04-09T17:43:58;99275.75;;;10.68;60.54
18697;BME280;22617;43.690;27.956;2023-04-09T17:49:03;99281.81;;;10.61;60.36
18697;BME280;22617;43.690;27.956;2023-04-09T17:54:06;99284.44;;;10.58;61.21
18697;BME280;22617;43.690;27.956;2023-04-09T17:59:10;99287.91;;;10.58;60.87
18697;BME280;22617;43.690;27.956;2023-04-09T18:04:15;99284.41;;;10.45;61.73
18697;BME280;22617;43.690;27.956;2023-04-09T18:09:19;99287.88;;;10.32;61.66
18697;BME280;22617;43.690;27.956;2023-04-09T18:14:25;99296.53;;;10.27;61.80
18697;BME280;22617;43.690;27.956;2023-04-09T18:19:29;99283.47;;;10.10;62.38
18697;BME280;22617;43.690;27.956;2023-04-09T18:24:35;99292.13;;;10.12;63.17
18697;BME280;22617;43.690;27.956;2023-04-09T18:29:38;99286.06;;;10.04;62.98
18697;BME280;22617;43.690;27.956;2023-04-09T18:34:43;99289.53;;;10.04;63.29
18697;BME280;22617;43.690;27.956;2023-04-09T18:39:48;99300.78;;;9.96;63.27
18697;BME280;22617;43.690;27.956;2023-04-09T18:44:52;99298.16;;;9.88;63.53
18697;BME280;22617;43.690;27.956;2023-04-09T18:49:58;99294.63;;;9.76;63.87
18697;BME280;22617;43.690;27.956;2023-04-09T18:55:04;99292.03;;;9.73;63.48
18697;BME280;22617;43.690;27.956;2023-04-09T19:00:08;99285.91;;;9.64;63.77
18697;BME280;22617;43.690;27.956;2023-04-09T19:05:13;99292.75;;;9.41;65.09
18697;BME280;22617;43.690;27.956;2023-04-09T19:10:18;99284.94;;;9.41;65.20
18697;BME280;22617;43.690;27.956;2023-04-09T19:15:23;99287.53;;;9.38;65.24
18697;BME280;22617;43.690;27.956;2023-04-09T19:20:29;99277.16;;;9.44;65.71
18697;BME280;22617;43.690;27.956;2023-04-09T19:25:32;99278.84;;;9.35;65.55
18697;BME280;22617;43.690;27.956;2023-04-09T19:30:36;99275.31;;;9.27;66.27
18697;BME280;22617;43.690;27.956;2023-04-09T19:35:41;99274.41;;;9.18;66.42
18697;BME280;22617;43.690;27.956;2023-04-09T19:40:45;99269.16;;;9.12;66.54
18697;BME280;22617;43.690;27.956;2023-04-09T19:45:50;99264.75;;;8.98;66.82
18697;BME280;22617;43.690;27.956;2023-04-09T19:50:55;99264.63;;;8.81;67.46
18697;BME280;22617;43.690;27.956;2023-04-09T19:55:58;99259.41;;;8.77;66.97
18697;BME280;22617;43.690;27.956;2023-04-09T20:01:02;99254.97;;;8.63;66.82
18697;BME280;22617;43.690;27.956;2023-04-09T20:06:08;99253.16;;;8.52;68.26
18697;BME280;22617;43.690;27.956;2023-04-09T20:11:15;99257.59;;;8.69;67.67
18697;BME280;22617;43.690;27.956;2023-04-09T20:16:19;99248.06;;;8.68;68.07
18697;BME280;22617;43.690;27.956;2023-04-09T20:21:24;99247.13;;;8.57;67.66
18697;BME280;22617;43.690;27.956;2023-04-09T20:26:28;99247.06;;;8.50;68.04
18697;BME280;22617;43.690;27.956;2023-04-09T20:31:32;99247.75;;;8.29;68.08
18697;BME280;22617;43.690;27.956;2023-04-09T20:36:38;99242.56;;;8.30;68.65
18697;BME280;22617;43.690;27.956;2023-04-09T20:41:44;99247.69;;;8.26;68.54
18697;BME280;22617;43.690;27.956;2023-04-09T20:46:48;99241.63;;;8.24;68.99
18697;BME280;22617;43.690;27.956;2023-04-09T20:51:53;99243.25;;;8.16;68.07
18697;BME280;22617;43.690;27.956;2023-04-09T20:56:57;99238.78;;;8.01;69.41
18697;BME280;22617;43.690;27.956;2023-04-09T21:02:02;99237.00;;;7.91;68.48
18697;BME280;22617;43.690;27.956;2023-04-09T21:07:07;99243.78;;;7.80;69.33
18697;BME280;22617;43.690;27.956;2023-04-09T21:12:11;99231.56;;;7.73;69.31
18697;BME280;22617;43.690;27.956;2023-04-09T21:17:14;99230.66;;;7.66;69.40
18697;BME280;22617;43.690;27.956;2023-04-09T21:22:19;99227.91;;;7.53;69.69
18697;BME280;22617;43.690;27.956;2023-04-09T21:27:23;99220.03;;;7.45;69.90
18697;BME280;22617;43.690;27.956;2023-04-09T21:32:26;99222.53;;;7.39;69.46
18697;BME280;22617;43.690;27.956;2023-04-09T21:37:31;99214.63;;;7.27;69.33
18697;BME280;22617;43.690;27.956;2023-04-09T21:42:35;99212.75;;;7.14;70.55
18697;BME280;22617;43.690;27.956;2023-04-09T21:47:38;99211.91;;;7.18;69.69
18697;BME280;22617;43.690;27.956;2023-04-09T21:52:45;99214.44;;;7.15;69.32
18697;BME280;22617;43.690;27.956;2023-04-09T21:57:48;99211.94;;;7.19;70.29
18697;BME280;22617;43.690;27.956;2023-04-09T22:02:54;99209.31;;;7.18;70.44
18697;BME280;22617;43.690;27.956;2023-04-09T22:08:04;99211.06;;;7.19;70.34
18697;BME280;22617;43.690;27.956;2023-04-09T22:13:08;99205.66;;;7.02;70.20
18697;BME280;22617;43.690;27.956;2023-04-09T22:18:12;99216.81;;;6.95;70.46
18697;BME280;22617;43.690;27.956;2023-04-09T22:23:16;99216.00;;;7.00;70.69
18697;BME280;22617;43.690;27.956;2023-04-09T22:28:20;99210.06;;;7.08;70.77
18697;BME280;22617;43.690;27.956;2023-04-09T22:33:25;99209.22;;;7.09;70.70
18697;BME280;22617;43.690;27.956;2023-04-09T22:38:29;99205.78;;;7.10;70.29
18697;BME280;22617;43.690;27.956;2023-04-09T22:43:33;99202.34;;;7.12;70.63
18697;BME280;22617;43.690;27.956;2023-04-09T22:48:37;99202.03;;;6.89;70.85
18697;BME280;22617;43.690;27.956;2023-04-09T22:54:01;99193.25;;;6.78;71.21
18697;BME280;22617;43.690;27.956;2023-04-09T22:59:05;99194.03;;;6.71;71.25
18697;BME280;22617;43.690;27.956;2023-04-09T23:04:09;99186.28;;;6.74;71.00
18697;BME280;22617;43.690;27.956;2023-04-09T23:09:14;99180.06;;;6.62;71.85
18697;BME280;22617;43.690;27.956;2023-04-09T23:14:17;99168.94;;;6.69;71.54
18697;BME280;22617;43.690;27.956;2023-04-09T23:19:21;99163.88;;;6.78;71.64
18697;BME280;22617;43.690;27.956;2023-04-09T23:24:25;99154.31;;;6.74;71.40
18697;BME280;22617;43.690;27.956;2023-04-09T23:29:29;99145.47;;;6.58;72.16
18697;BME280;22617;43.690;27.956;2023-04-09T23:34:33;99143.94;;;6.72;71.96
18697;BME280;22617;43.690;27.956;2023-04-09T23:39:38;99147.50;;;6.79;71.87
18697;BME280;22617;43.690;27.956;2023-04-09T23:44:42;99141.56;;;6.87;71.95
18697;BME280;22617;43.690;27.956;2023-04-09T23:49:45;99127.72;;;6.85;71.41
18697;BME280;22617;43.690;27.956;2023-04-09T23:54:50;99133.50;;;6.65;71.04
18697;BME280;22617;43.690;27.956;2023-04-09T23:59:54;99126.53;;;6.61;71.51
